sensor_id;sensor_type;location;lat;lon;timestamp;temperature;humidity
6863;DHT22;3470;48.738;9.616;2023-12-28T18:18:59;8.00;99.90
6863;DHT22;3470;48.738;9.616;2023-12-28T18:21:25;8.00;99.90
6863;DHT22;3470;48.738;9.616;2023-12-28T18:23:51;7.90;99.90
6863;DHT22;3470;48.738;9.616;2023-12-28T18:26:16;7.90;99.90
6863;DHT22;3470;48.738;9.616;2023-12-28T18:28:43;7.90;99.90
6863;DHT22;3470;48.738;9.616;2023-12-28T18:31:08;7.90;99.90
6863;DHT22;3470;48.738;9.616;2023-12-28T18:33:35;7.90;99.90
6863;DHT22;3470;48.738;9.616;2023-12-28T18:36:02;7.90;99.90
6863;DHT22;3470;48.738;9.616;2023-12-28T18:38:28;8.00;99.90
6863;DHT22;3470;48.738;9.616;2023-12-28T18:40:53;8.10;99.90
6863;DHT22;3470;48.738;9.616;2023-12-28T18:43:19;8.10;99.90
6863;DHT22;3470;48.738;9.616;2023-12-28T18:45:44;8.10;99.90
6863;DHT22;3470;48.738;9.616;2023-12-28T18:48:13;8.20;99.90
6863;DHT22;3470;48.738;9.616;2023-12-28T18:50:40;8.20;99.90
6863;DHT22;3470;48.738;9.616;2023-12-28T18:53:06;8.20;99.90
6863;DHT22;3470;48.738;9.616;2023-12-28T18:55:33;8.20;99.90
6863;DHT22;3470;48.738;9.616;2023-12-28T18:57:59;8.20;99.90
6863;DHT22;3470;48.738;9.616;2023-12-28T19:00:24;8.20;99.90
6863;DHT22;3470;48.738;9.616;2023-12-28T19:02:50;8.20;99.90
6863;DHT22;3470;48.738;9.616;2023-12-28T19:05:15;8.20;99.90
6863;DHT22;3470;48.738;9.616;2023-12-28T19:07:43;8.20;99.90
6863;DHT22;3470;48.738;9.616;2023-12-28T19:10:10;8.20;99.90
6863;DHT22;3470;48.738;9.616;2023-12-28T19:12:36;8.20;99.90
6863;DHT22;3470;48.738;9.616;2023-12-28T19:15:01;8.20;99.90
6863;DHT22;3470;48.738;9.616;2023-12-28T19:17:28;8.20;99.90
6863;DHT22;3470;48.738;9.616;2023-12-28T19:19:54;8.20;99.90
6863;DHT22;3470;48.738;9.616;2023-12-28T19:22:20;8.20;99.90
6863;DHT22;3470;48.738;9.616;2023-12-28T19:24:45;8.10;99.90
6863;DHT22;3470;48.738;9.616;2023-12-28T19:27:12;8.10;99.90
6863;DHT22;3470;48.738;9.616;2023-12-28T19:29:38;8.10;99.90
6863;DHT22;3470;48.738;9.616;2023-12-28T19:32:04;8.10;99.90
6863;DHT22;3470;48.738;9.616;2023-12-28T19:34:29;8.10;99.90
6863;DHT22;3470;48.738;9.616;2023-12-28T19:36:55;8.10;99.90
6863;DHT22;3470;48.738;9.616;2023-12-28T19:39:20;8.10;99.90
6863;DHT22;3470;48.738;9.616;2023-12-28T19:41:46;8.20;99.90
6863;DHT22;3470;48.738;9.616;2023-12-28T19:44:11;8.20;99.90
6863;DHT22;3470;48.738;9.616;2023-12-28T19:46:37;8.20;99.90
6863;DHT22;3470;48.738;9.616;2023-12-28T19:49:03;8.20;99.90
6863;DHT22;3470;48.738;9.616;2023-12-28T19:51:28;8.30;99.90
6863;DHT22;3470;48.738;9.616;2023-12-28T19:53:54;8.40;99.90
6863;DHT22;3470;48.738;9.616;2023-12-28T19:56:19;8.40;99.90
6863;DHT22;3470;48.738;9.616;2023-12-28T19:58:45;8.40;99.90
6863;DHT22;3470;48.738;9.616;2023-12-28T20:01:11;8.40;99.90
6863;DHT22;3470;48.738;9.616;2023-12-28T20:03:38;8.50;99.90
6863;DHT22;3470;48.738;9.616;2023-12-28T20:06:06;8.50;99.90
6863;DHT22;3470;48.738;9.616;2023-12-28T20:08:34;8.50;99.90
6863;DHT22;3470;48.738;9.616;2023-12-28T20:11:00;8.40;99.90
6863;DHT22;3470;48.738;9.616;2023-12-28T20:13:26;8.50;99.90
6863;DHT22;3470;48.738;9.616;2023-12-28T20:15:52;8.40;99.90
6863;DHT22;3470;48.738;9.616;2023-12-28T20:18:18;8.40;99.90
6863;DHT22;3470;48.738;9.616;2023-12-28T20:20:43;8.40;99.90
6863;DHT22;3470;48.738;9.616;2023-12-28T20:23:09;8.50;99.90
6863;DHT22;3470;48.738;9.616;2023-12-28T20:25:34;8.50;99.90
6863;DHT22;3470;48.738;9.616;2023-12-28T20:28:02;8.60;99.90
6863;DHT22;3470;48.738;9.616;2023-12-28T20:30:28;8.60;99.90
6863;DHT22;3470;48.738;9.616;2023-12-28T20:32:55;8.60;99.90
6863;DHT22;3470;48.738;9.616;2023-12-28T20:35:21;8.60;99.90
6863;DHT22;3470;48.738;9.616;2023-12-28T20:37:47;8.50;99.90
6863;DHT22;3470;48.738;9.616;2023-12-28T20:40:12;8.60;99.90
6863;DHT22;3470;48.738;9.616;2023-12-28T20:42:38;8.60;99.90
6863;DHT22;3470;48.738;9.616;2023-12-28T20:45:04;8.60;99.90
6863;DHT22;3470;48.738;9.616;2023-12-28T20:47:29;8.60;99.90
6863;DHT22;3470;48.738;9.616;2023-12-28T20:49:55;8.60;99.90
6863;DHT22;3470;48.738;9.616;2023-12-28T20:52:22;8.60;99.90
6863;DHT22;3470;48.738;9.616;2023-12-28T20:54:48;8.60;99.90
6863;DHT22;3470;48.738;9.616;2023-12-28T20:57:15;8.60;99.90
6863;DHT22;3470;48.738;9.616;2023-12-28T20:59:40;8.60;99.90
6863;DHT22;3470;48.738;9.616;2023-12-28T21:02:11;8.50;99.90
6863;DHT22;3470;48.738;9.616;2023-12-28T21:04:36;8.50;99.90
6863;DHT22;3470;48.738;9.616;2023-12-28T21:07:02;8.50;99.90
6863;DHT22;3470;48.738;9.616;2023-12-28T21:09:28;8.50;99.90
6863;DHT22;3470;48.738;9.616;2023-12-28T21:11:54;8.60;99.90
6863;DHT22;3470;48.738;9.616;2023-12-28T21:14:25;8.60;99.90
6863;DHT22;3470;48.738;9.616;2023-12-28T21:16:53;8.60;99.90
6863;DHT22;3470;48.738;9.616;2023-12-28T21:19:18;8.60;99.90
6863;DHT22;3470;48.738;9.616;2023-12-28T21:21:44;8.60;99.90
6863;DHT22;3470;48.738;9.616;2023-12-28T21:24:09;8.60;99.90
6863;DHT22;3470;48.738;9.616;2023-12-28T21:26:35;8.60;99.90
6863;DHT22;3470;48.738;9.616;2023-12-28T21:29:01;8.60;99.90
6863;DHT22;3470;48.738;9.616;2023-12-28T21:31:26;8.60;99.90
6863;DHT22;3470;48.738;9.616;2023-12-28T21:33:53;8.60;99.90
6863;DHT22;3470;48.738;9.616;2023-12-28T21:36:19;8.60;99.90
6863;DHT22;3470;48.738;9.616;2023-12-28T21:38:44;8.50;99.90
6863;DHT22;3470;48.738;9.616;2023-12-28T21:41:10;8.50;99.90
6863;DHT22;3470;48.738;9.616;2023-12-28T21:43:36;8.50;99.90
6863;DHT22;3470;48.738;9.616;2023-12-28T21:46:04;8.50;99.90
6863;DHT22;3470;48.738;9.616;2023-12-28T21:48:30;8.50;99.90
6863;DHT22;3470;48.738;9.616;2023-12-28T21:50:57;8.50;99.90
6863;DHT22;3470;48.738;9.616;2023-12-28T21:53:22;8.50;99.90
6863;DHT22;3470;48.738;9.616;2023-12-28T21:55:48;8.50;99.90
6863;DHT22;3470;48.738;9.616;2023-12-28T21:58:13;8.50;99.90
6863;DHT22;3470;48.738;9.616;2023-12-28T22:00:39;8.40;99.90
6863;DHT22;3470;48.738;9.616;2023-12-28T22:03:05;8.30;99.90
6863;DHT22;3470;48.738;9.616;2023-12-28T22:05:30;8.30;99.90
6863;DHT22;3470;48.738;9.616;2023-12-28T22:07:56;8.30;99.90
6863;DHT22;3470;48.738;9.616;2023-12-28T22:10:22;8.20;99.90
6863;DHT22;3470;48.738;9.616;2023-12-28T22:12:47;8.20;99.90
6863;DHT22;3470;48.738;9.616;2023-12-28T22:15:14;8.10;99.90
6863;DHT22;3470;48.738;9.616;2023-12-28T22:17:40;8.10;99.90
6863;DHT22;3470;48.738;9.616;2023-12-28T22:20:06;8.00;99.90
6863;DHT22;3470;48.738;9.616;2023-12-28T22:22:32;8.00;99.90
6863;DHT22;3470;48.738;9.616;2023-12-28T22:24:58;7.90;99.90
6863;DHT22;3470;48.738;9.616;2023-12-28T22:27:23;7.90;99.90
6863;DHT22;3470;48.738;9.616;2023-12-28T22:29:49;7.90;99.90
6863;DHT22;3470;48.738;9.616;2023-12-28T22:32:14;8.00;99.90
6863;DHT22;3470;48.738;9.616;2023-12-28T22:34:40;8.10;99.90
6863;DHT22;3470;48.738;9.616;2023-12-28T22:37:05;8.20;99.90
6863;DHT22;3470;48.738;9.616;2023-12-28T22:39:31;8.40;99.90
6863;DHT22;3470;48.738;9.616;2023-12-28T22:41:57;8.50;99.90
6863;DHT22;3470;48.738;9.616;2023-12-28T22:44:23;8.60;99.90
6863;DHT22;3470;48.738;9.616;2023-12-28T22:46:48;8.70;99.90
6863;DHT22;3470;48.738;9.616;2023-12-28T22:49:14;8.80;99.90
6863;DHT22;3470;48.738;9.616;2023-12-28T22:51:39;8.80;99.90
6863;DHT22;3470;48.738;9.616;2023-12-28T22:54:05;8.80;99.90
6863;DHT22;3470;48.738;9.616;2023-12-28T22:56:31;8.90;99.90
6863;DHT22;3470;48.738;9.616;2023-12-28T22:58:56;8.90;99.90
6863;DHT22;3470;48.738;9.616;2023-12-28T23:01:22;8.90;99.90
6863;DHT22;3470;48.738;9.616;2023-12-28T23:03:48;8.90;99.90
6863;DHT22;3470;48.738;9.616;2023-12-28T23:06:15;9.00;99.90
6863;DHT22;3470;48.738;9.616;2023-12-28T23:08:40;9.00;99.90
6863;DHT22;3470;48.738;9.616;2023-12-28T23:11:06;9.00;99.90
6863;DHT22;3470;48.738;9.616;2023-12-28T23:13:32;9.00;99.90
6863;DHT22;3470;48.738;9.616;2023-12-28T23:15:58;9.00;99.90
6863;DHT22;3470;48.738;9.616;2023-12-28T23:18:24;9.00;99.90
6863;DHT22;3470;48.738;9.616;2023-12-28T23:20:50;9.00;99.90
6863;DHT22;3470;48.738;9.616;2023-12-28T23:23:15;9.10;99.90
6863;DHT22;3470;48.738;9.616;2023-12-28T23:25:41;9.10;99.90
6863;DHT22;3470;48.738;9.616;2023-12-28T23:28:06;9.00;99.90
6863;DHT22;3470;48.738;9.616;2023-12-28T23:30:32;9.00;99.90
6863;DHT22;3470;48.738;9.616;2023-12-28T23:32:58;9.00;99.90
6863;DHT22;3470;48.738;9.616;2023-12-28T23:35:23;9.00;99.90
6863;DHT22;3470;48.738;9.616;2023-12-28T23:37:49;8.90;99.90
6863;DHT22;3470;48.738;9.616;2023-12-28T23:40:15;8.90;99.90
6863;DHT22;3470;48.738;9.616;2023-12-28T23:42:40;8.90;99.90
6863;DHT22;3470;48.738;9.616;2023-12-28T23:45:07;8.90;99.90
6863;DHT22;3470;48.738;9.616;2023-12-28T23:47:33;8.90;99.90
6863;DHT22;3470;48.738;9.616;2023-12-28T23:49:59;9.00;99.90
6863;DHT22;3470;48.738;9.616;2023-12-28T23:52:25;9.00;99.90
6863;DHT22;3470;48.738;9.616;2023-12-28T23:54:50;8.90;99.90
6863;DHT22;3470;48.738;9.616;2023-12-28T23:57:16;8.80;99.90
6863;DHT22;3470;48.738;9.616;2023-12-28T23:59:42;8.80;99.90
